Portada
METAR-TAF:

METAR-TAF

Aeroports :

Samarcanda, Uzbekistan

latitud: 39-34N, longitud: 066-57E, altitud: 724 m

Observació

L'informe es va fer fa 28 minuts, a les 13:30 UTC
Vent 4 kt del Est
Temperatura 7°C
Humitat 76%
Pressió 1027 hPa
Visibilitat: 2600 m
boirina

METAR: UTSS 181330Z 10004KT 2600 BR NSC 07/03 Q1027 R09/CLRD70 NOSIG

Hora: 18:58 (13:58 UTC)

Pronòstic

L'informe es va fer fa 3 hores i 3 minuts, a les 10:55 UTC
Pronòstic vàlid del 18 a les 12 UTC al 19 a les 12 UTC
Vent 8 kt del Sud-Est
Visibilitat: 6000 m
Temporalment
l' 18 a les 13 UTC al 18 a les 24 UTC
Visibilitat: 3000 m
boirina

TAF: UTSS 181055Z 1812/1912 13008KT 6000 NSC TEMPO 1813/1824 3000 BR

Observacions i pronòstics meteorològics de més de 4000 aeroports (METAR i TAF).

Les estacions disponibles són els punts grocs i vermells al mapa.

Posi el ratolí al punt desitjat per veure el nom de l'estació.

Feu clic per veure les observacions i els pronòstics meteorològics.

Per canviar el mapa: feu clic els botons verds amb una creu de color negre per apropar; al botó verd amb un guió per allunyar la imatge; o en les fletxes verdes per a mapes adjacents.


METAR-TAF: